createdAt,value
2018-09-18T00:00:41.263Z,4.30
2018-09-18T00:03:08.656Z,4.70
2018-09-18T00:05:36.057Z,3.77
2018-09-18T00:08:03.503Z,4.53
2018-09-18T00:10:30.936Z,3.93
2018-09-18T00:12:58.352Z,5.00
2018-09-18T00:15:25.784Z,4.60
2018-09-18T00:17:53.210Z,4.07
2018-09-18T00:20:20.614Z,4.57
2018-09-18T00:22:48.035Z,4.47
2018-09-18T00:25:15.439Z,4.97
2018-09-18T00:27:42.871Z,4.80
2018-09-18T00:30:10.273Z,4.40
2018-09-18T00:32:37.697Z,4.17
2018-09-18T00:35:05.104Z,4.50
2018-09-18T00:37:32.534Z,4.40
2018-09-18T00:39:59.924Z,4.77
2018-09-18T00:42:28.530Z,4.53
2018-09-18T00:44:54.790Z,4.03
2018-09-18T00:47:22.208Z,4.50
2018-09-18T00:49:49.636Z,4.50
2018-09-18T00:52:17.039Z,3.80
2018-09-18T00:54:44.456Z,3.80
2018-09-18T00:57:11.852Z,3.70
2018-09-18T00:59:39.275Z,4.60
2018-09-18T01:02:06.690Z,4.20
2018-09-18T01:04:34.113Z,3.90
2018-09-18T01:07:01.521Z,4.10
2018-09-18T01:09:28.947Z,5.07
2018-09-18T01:11:56.375Z,4.77
2018-09-18T01:14:23.813Z,4.30
2018-09-18T01:16:51.217Z,4.73
2018-09-18T01:19:18.645Z,4.50
2018-09-18T01:21:46.071Z,4.60
2018-09-18T01:24:13.461Z,4.47
2018-09-18T01:26:40.876Z,4.50
2018-09-18T01:29:08.282Z,4.37
2018-09-18T01:31:38.432Z,4.73
2018-09-18T01:34:05.828Z,4.63
2018-09-18T01:36:33.252Z,4.40
2018-09-18T01:39:00.646Z,4.43
2018-09-18T01:41:28.067Z,4.50
2018-09-18T01:43:55.508Z,5.00
2018-09-18T01:46:22.917Z,4.97
2018-09-18T01:48:50.320Z,5.00
2018-09-18T01:51:17.743Z,5.10
2018-09-18T01:53:45.140Z,4.40
2018-09-18T01:56:12.591Z,4.87
2018-09-18T01:58:39.957Z,4.80
2018-09-18T02:01:07.380Z,4.13
2018-09-18T02:03:34.800Z,4.93
2018-09-18T02:06:02.201Z,5.00
2018-09-18T02:08:29.615Z,4.87
2018-09-18T02:10:57.008Z,5.07
2018-09-18T02:13:24.435Z,5.30
2018-09-18T02:15:51.851Z,5.53
2018-09-18T02:18:19.262Z,5.03
2018-09-18T02:20:46.686Z,4.90
2018-09-18T02:23:14.112Z,5.27
2018-09-18T02:25:41.535Z,5.90
2018-09-18T02:28:08.945Z,6.00
2018-09-18T02:30:36.382Z,5.50
2018-09-18T02:33:03.780Z,5.80
2018-09-18T02:35:31.202Z,5.73
2018-09-18T02:37:58.605Z,5.77
2018-09-18T02:40:26.043Z,6.37
2018-09-18T02:42:53.454Z,6.33
2018-09-18T02:45:20.875Z,6.17
2018-09-18T02:47:48.302Z,6.67
2018-09-18T02:50:15.723Z,7.07
2018-09-18T02:52:43.129Z,6.27
2018-09-18T02:55:10.552Z,6.93
2018-09-18T02:57:37.989Z,6.77
2018-09-18T03:00:05.415Z,6.63
2018-09-18T03:02:32.849Z,7.30
2018-09-18T03:05:00.272Z,6.90
2018-09-18T03:07:27.715Z,7.43
2018-09-18T03:09:55.118Z,6.53
2018-09-18T03:12:22.559Z,6.93
2018-09-18T03:14:49.974Z,7.00
2018-09-18T03:17:17.407Z,6.90
2018-09-18T03:19:44.805Z,7.50
2018-09-18T03:22:12.237Z,6.20
2018-09-18T03:24:39.650Z,6.80
2018-09-18T03:27:07.085Z,6.40
2018-09-18T03:29:34.498Z,6.47
2018-09-18T03:32:01.933Z,6.30
2018-09-18T03:34:29.338Z,6.10
2018-09-18T03:36:56.764Z,6.40
2018-09-18T03:39:24.168Z,6.23
2018-09-18T03:41:51.587Z,5.50
2018-09-18T03:44:18.988Z,5.50
2018-09-18T03:46:46.412Z,5.60
2018-09-18T03:49:13.827Z,5.47
2018-09-18T03:51:41.251Z,5.87
2018-09-18T03:54:08.683Z,5.57
2018-09-18T03:56:36.073Z,5.10
2018-09-18T03:59:03.495Z,4.90
2018-09-18T04:01:30.910Z,4.50
2018-09-18T04:03:58.338Z,5.50
2018-09-18T04:06:25.744Z,5.07
2018-09-18T04:08:53.152Z,5.13
2018-09-18T04:11:20.578Z,5.17
2018-09-18T04:13:47.984Z,4.90
2018-09-18T04:16:15.422Z,4.77
2018-09-18T04:18:42.818Z,4.30
2018-09-18T04:21:10.256Z,4.53
2018-09-18T04:23:37.653Z,4.33
2018-09-18T04:26:05.090Z,4.70
2018-09-18T04:28:32.489Z,5.17
2018-09-18T04:30:59.893Z,4.57
2018-09-18T04:33:27.329Z,4.67
2018-09-18T04:35:54.726Z,4.63
2018-09-18T04:38:22.145Z,4.37
2018-09-18T04:40:49.553Z,4.37
2018-09-18T04:43:16.976Z,4.30
2018-09-18T04:45:44.376Z,4.80
2018-09-18T04:48:11.813Z,4.77
2018-09-18T04:50:39.214Z,4.70
2018-09-18T04:53:06.625Z,4.53
2018-09-18T04:55:34.031Z,4.23
2018-09-18T04:58:01.455Z,4.50
2018-09-18T05:00:28.881Z,4.87
2018-09-18T05:02:56.308Z,4.30
2018-09-18T05:05:23.708Z,4.47
2018-09-18T05:07:51.145Z,4.50
2018-09-18T05:10:18.570Z,4.20
2018-09-18T05:12:45.994Z,4.67
2018-09-18T05:15:13.415Z,4.60
2018-09-18T05:17:40.810Z,4.67
2018-09-18T05:20:08.260Z,4.60
2018-09-18T05:22:35.670Z,4.07
2018-09-18T05:25:03.251Z,4.40
2018-09-18T05:27:30.675Z,4.43
2018-09-18T05:30:04.017Z,4.43
2018-09-18T05:32:31.415Z,4.93
2018-09-18T05:34:58.901Z,4.70
2018-09-18T05:37:26.289Z,4.67
2018-09-18T05:39:53.733Z,4.30
2018-09-18T05:42:21.128Z,4.17
2018-09-18T05:44:48.528Z,4.47
2018-09-18T05:47:15.946Z,4.70
2018-09-18T05:49:43.374Z,4.87
2018-09-18T05:52:10.776Z,4.23
2018-09-18T05:54:38.206Z,4.73
2018-09-18T05:57:05.651Z,4.90
2018-09-18T05:59:33.054Z,4.40
2018-09-18T06:02:00.480Z,4.20
2018-09-18T06:04:27.909Z,4.03
2018-09-18T06:06:55.345Z,4.60
2018-09-18T06:09:22.745Z,4.47
2018-09-18T06:11:50.159Z,4.70
2018-09-18T06:14:17.587Z,3.67
2018-09-18T06:16:44.986Z,3.97
2018-09-18T06:19:12.468Z,4.13
2018-09-18T06:21:39.851Z,4.20
2018-09-18T06:24:07.267Z,4.30
2018-09-18T06:26:34.690Z,3.80
2018-09-18T06:29:04.999Z,4.00
2018-09-18T06:31:32.428Z,4.83
2018-09-18T06:33:59.835Z,4.03
2018-09-18T06:36:27.269Z,4.07
2018-09-18T06:38:54.670Z,4.00
2018-09-18T06:41:22.083Z,4.57
2018-09-18T06:43:49.520Z,4.20
2018-09-18T06:46:16.942Z,4.00
2018-09-18T06:48:44.385Z,4.20
2018-09-18T06:51:11.779Z,5.00
2018-09-18T06:53:39.206Z,4.53
2018-09-18T06:56:06.609Z,3.80
2018-09-18T06:58:34.041Z,4.20
2018-09-18T07:01:01.455Z,4.27
2018-09-18T07:03:28.917Z,4.20
2018-09-18T07:05:56.313Z,4.30
2018-09-18T07:08:23.748Z,4.10
2018-09-18T07:10:51.194Z,3.93
2018-09-18T07:13:18.672Z,3.87
2018-09-18T07:15:46.060Z,4.47
2018-09-18T07:18:13.475Z,4.10
2018-09-18T07:20:40.931Z,4.07
2018-09-18T07:23:08.358Z,4.37
2018-09-18T07:25:35.787Z,3.90
2018-09-18T07:28:03.197Z,4.03
2018-09-18T07:30:30.625Z,4.23
2018-09-18T07:32:58.057Z,4.60
2018-09-18T07:35:25.499Z,4.40
2018-09-18T07:37:52.909Z,4.43
2018-09-18T07:40:20.343Z,3.87
2018-09-18T07:42:47.754Z,3.73
2018-09-18T07:45:15.190Z,3.90
2018-09-18T07:47:42.601Z,4.30
2018-09-18T07:50:10.039Z,4.67
2018-09-18T07:52:37.459Z,4.68
2018-09-18T07:55:04.883Z,4.53
2018-09-18T07:57:32.327Z,4.53
2018-09-18T07:59:59.753Z,4.47
2018-09-18T08:02:27.177Z,4.33
2018-09-18T08:04:54.598Z,4.00
2018-09-18T08:07:22.016Z,4.32
2018-09-18T08:09:49.462Z,4.25
2018-09-18T08:12:16.870Z,4.25
2018-09-18T08:14:44.315Z,4.20
2018-09-18T08:17:11.743Z,4.37
2018-09-18T08:19:39.201Z,4.30
2018-09-18T08:22:06.668Z,4.40
2018-09-18T08:24:34.027Z,4.12
2018-09-18T08:27:01.450Z,4.30
2018-09-18T08:29:28.874Z,4.30
2018-09-18T08:31:56.306Z,4.10
2018-09-18T08:34:23.739Z,3.90
2018-09-18T08:36:51.153Z,4.43
2018-09-18T08:39:18.585Z,4.00
2018-09-18T08:41:46.004Z,4.03
2018-09-18T08:44:13.442Z,4.07
2018-09-18T08:46:40.865Z,3.90
2018-09-18T08:49:08.284Z,4.23
2018-09-18T08:51:35.702Z,3.75
2018-09-18T08:54:03.130Z,4.10
2018-09-18T08:56:30.575Z,4.00
2018-09-18T08:58:58.000Z,4.25
2018-09-18T09:01:25.431Z,3.85
2018-09-18T09:03:52.848Z,3.65
2018-09-18T09:06:20.318Z,4.87
2018-09-18T09:08:47.828Z,3.75
2018-09-18T09:11:15.181Z,4.60
2018-09-18T09:13:42.569Z,4.70
2018-09-18T09:16:10.010Z,3.90
2018-09-18T09:18:37.459Z,3.85
2018-09-18T09:21:05.028Z,3.87
2018-09-18T09:23:32.384Z,3.60
2018-09-18T09:25:59.791Z,3.45
2018-09-18T09:28:27.226Z,4.10
2018-09-18T09:30:54.647Z,4.18
2018-09-18T09:33:22.092Z,3.72
2018-09-18T09:35:49.547Z,3.67
2018-09-18T09:38:16.972Z,3.42
2018-09-18T09:40:44.389Z,3.60
2018-09-18T09:43:11.827Z,3.50
2018-09-18T09:45:39.241Z,3.30
2018-09-18T09:48:06.678Z,3.37
2018-09-18T09:50:34.102Z,3.35
2018-09-18T09:53:01.550Z,3.65
2018-09-18T09:55:28.995Z,3.47
2018-09-18T09:57:56.406Z,3.62
2018-09-18T10:00:23.872Z,4.00
2018-09-18T10:02:51.345Z,3.40
2018-09-18T10:05:18.693Z,3.53
2018-09-18T10:07:46.131Z,3.75
2018-09-18T10:10:13.569Z,3.78
2018-09-18T10:12:41.003Z,3.37
2018-09-18T10:15:08.530Z,3.50
2018-09-18T10:17:35.939Z,2.90
2018-09-18T10:20:03.329Z,3.12
2018-09-18T10:22:30.746Z,2.92
2018-09-18T10:24:58.224Z,3.58
2018-09-18T10:27:25.623Z,3.17
2018-09-18T10:29:53.051Z,3.17
2018-09-18T10:32:20.469Z,2.80
2018-09-18T10:34:47.932Z,3.00
2018-09-18T10:37:15.328Z,2.83
2018-09-18T10:39:42.761Z,3.15
2018-09-18T10:42:10.310Z,3.28
2018-09-18T10:44:37.606Z,2.75
2018-09-18T10:47:05.002Z,2.90
2018-09-18T10:49:32.436Z,2.78
2018-09-18T10:51:59.840Z,2.80
2018-09-18T10:54:27.288Z,2.35
2018-09-18T10:56:54.692Z,2.70
2018-09-18T10:59:22.123Z,2.53
2018-09-18T11:01:49.612Z,2.75
2018-09-18T11:04:16.982Z,3.03
2018-09-18T11:06:44.464Z,2.40
2018-09-18T11:09:11.899Z,3.45
2018-09-18T11:11:39.235Z,2.67
2018-09-18T11:14:06.683Z,2.97
2018-09-18T11:16:34.110Z,2.15
2018-09-18T11:19:01.571Z,2.50
2018-09-18T11:21:28.901Z,2.33
2018-09-18T11:23:56.410Z,2.70
2018-09-18T11:26:23.775Z,2.33
2018-09-18T11:28:51.202Z,2.50
2018-09-18T11:31:18.784Z,2.47
2018-09-18T11:33:46.083Z,2.10
2018-09-18T11:36:13.504Z,2.10
2018-09-18T11:38:40.944Z,2.50
2018-09-18T11:41:08.380Z,2.55
2018-09-18T11:43:35.792Z,2.80
2018-09-18T11:46:03.433Z,2.80
2018-09-18T11:48:30.673Z,3.00
2018-09-18T11:50:58.102Z,2.55
2018-09-18T11:53:25.551Z,2.60
2018-09-18T11:55:52.989Z,3.03
2018-09-18T11:58:20.432Z,2.92
2018-09-18T12:00:47.850Z,3.10
2018-09-18T12:03:15.378Z,2.83
2018-09-18T12:05:42.713Z,2.95
2018-09-18T12:08:10.121Z,3.10
2018-09-18T12:10:37.558Z,2.92
2018-09-18T12:13:04.969Z,2.80
2018-09-18T12:15:32.392Z,2.85
2018-09-18T12:17:59.830Z,2.80
2018-09-18T12:20:27.254Z,2.75
2018-09-18T12:22:54.655Z,2.70
2018-09-18T12:25:22.083Z,3.10
2018-09-18T12:27:49.537Z,2.75
2018-09-18T12:30:16.941Z,2.80
2018-09-18T12:32:44.365Z,2.70
2018-09-18T12:35:11.829Z,2.95
2018-09-18T12:37:39.332Z,2.42
2018-09-18T12:40:06.745Z,3.05
2018-09-18T12:42:34.318Z,2.90
2018-09-18T12:45:01.625Z,3.20
2018-09-18T12:47:29.030Z,3.35
2018-09-18T12:49:56.704Z,3.25
2018-09-18T12:52:24.425Z,2.87
2018-09-18T12:54:51.832Z,3.65
2018-09-18T12:57:19.371Z,3.30
2018-09-18T12:59:46.854Z,2.97
2018-09-18T13:02:14.126Z,3.40
2018-09-18T13:04:41.545Z,3.30
2018-09-18T13:07:09.103Z,2.92
2018-09-18T13:09:36.433Z,3.00
2018-09-18T13:12:03.840Z,3.58
2018-09-18T13:14:31.296Z,2.78
2018-09-18T13:16:58.712Z,2.83
2018-09-18T13:19:26.156Z,2.80
2018-09-18T13:21:53.578Z,3.33
2018-09-18T13:24:21.012Z,3.25
2018-09-18T13:26:48.440Z,2.60
2018-09-18T13:29:15.895Z,2.83
2018-09-18T13:31:43.325Z,3.20
2018-09-18T13:34:10.741Z,3.33
2018-09-18T13:36:38.254Z,3.20
2018-09-18T13:39:05.593Z,3.35
2018-09-18T13:41:33.047Z,3.87
2018-09-18T13:44:00.473Z,3.25
2018-09-18T13:46:27.919Z,2.87
2018-09-18T13:48:55.320Z,3.20
2018-09-18T13:51:22.754Z,2.67
2018-09-18T13:53:50.186Z,3.20
2018-09-18T13:56:17.722Z,2.42
2018-09-18T13:58:45.060Z,3.28
2018-09-18T14:01:12.519Z,3.45
2018-09-18T14:03:39.925Z,2.80
2018-09-18T14:06:07.357Z,3.25
2018-09-18T14:08:34.776Z,3.17
2018-09-18T14:11:02.475Z,3.83
2018-09-18T14:13:29.879Z,3.28
2018-09-18T14:15:57.347Z,3.37
2018-09-18T14:18:24.759Z,3.67
2018-09-18T14:20:52.187Z,3.30
2018-09-18T14:23:19.629Z,3.10
2018-09-18T14:25:47.085Z,3.08
2018-09-18T14:28:14.488Z,3.10
2018-09-18T14:30:41.910Z,3.22
2018-09-18T14:33:09.359Z,2.87
2018-09-18T14:35:36.782Z,3.40
2018-09-18T14:38:04.286Z,3.37
2018-09-18T14:40:31.741Z,3.25
2018-09-18T14:42:59.096Z,3.20
2018-09-18T14:45:26.574Z,2.92
2018-09-18T14:47:53.945Z,3.28
2018-09-18T14:50:21.389Z,3.28
2018-09-18T14:52:48.803Z,3.50
2018-09-18T14:55:16.235Z,3.08
2018-09-18T14:57:43.638Z,2.87
2018-09-18T15:00:11.215Z,3.37
2018-09-18T15:02:38.544Z,3.33
2018-09-18T15:05:05.984Z,3.22
2018-09-18T15:07:33.392Z,3.50
2018-09-18T15:10:00.833Z,3.10
2018-09-18T15:12:28.234Z,2.85
2018-09-18T15:14:55.646Z,3.40
2018-09-18T15:17:23.105Z,3.20
2018-09-18T15:19:50.529Z,2.90
2018-09-18T15:22:17.974Z,3.10
2018-09-18T15:24:45.379Z,3.07
2018-09-18T15:27:12.785Z,3.13
2018-09-18T15:29:40.231Z,3.00
2018-09-18T15:32:07.684Z,3.63
2018-09-18T15:34:35.070Z,3.27
2018-09-18T15:37:02.512Z,3.03
2018-09-18T15:39:29.941Z,3.15
2018-09-18T15:41:57.359Z,3.35
2018-09-18T15:44:24.764Z,3.30
2018-09-18T15:46:52.192Z,3.40
2018-09-18T15:49:19.634Z,3.10
2018-09-18T15:51:47.180Z,3.60
2018-09-18T15:54:14.465Z,3.67
2018-09-18T15:56:41.872Z,4.10
2018-09-18T15:59:09.330Z,3.80
2018-09-18T16:01:41.384Z,2.87
2018-09-18T16:04:08.838Z,3.70
2018-09-18T16:06:36.271Z,3.23
2018-09-18T16:09:03.717Z,3.60
2018-09-18T16:11:31.123Z,3.37
2018-09-18T16:13:58.552Z,3.37
2018-09-18T16:16:26.123Z,3.53
2018-09-18T16:18:53.546Z,3.43
2018-09-18T16:21:20.974Z,3.30
2018-09-18T16:23:48.410Z,3.60
2018-09-18T16:26:15.847Z,3.87
2018-09-18T16:28:43.244Z,3.60
2018-09-18T16:31:10.667Z,3.50
2018-09-18T16:33:38.121Z,3.67
2018-09-18T16:36:05.535Z,3.67
2018-09-18T16:38:33.104Z,4.17
2018-09-18T16:41:00.507Z,3.30
2018-09-18T16:43:27.905Z,4.20
2018-09-18T16:45:55.377Z,3.60
2018-09-18T16:48:22.791Z,3.50
2018-09-18T16:50:50.212Z,3.60
2018-09-18T16:53:17.620Z,3.53
2018-09-18T16:55:45.036Z,3.90
2018-09-18T16:58:12.447Z,4.30
2018-09-18T17:00:39.927Z,3.10
2018-09-18T17:03:07.306Z,4.07
2018-09-18T17:05:34.724Z,4.00
2018-09-18T17:08:02.140Z,3.43
2018-09-18T17:10:29.603Z,3.57
2018-09-18T17:12:57.153Z,4.07
2018-09-18T17:15:24.752Z,3.80
2018-09-18T17:17:52.277Z,3.70
2018-09-18T17:20:19.689Z,4.30
2018-09-18T17:22:47.127Z,3.80
2018-09-18T17:25:14.540Z,3.57
2018-09-18T17:27:42.001Z,4.03
2018-09-18T17:30:09.435Z,5.07
2018-09-18T17:32:36.872Z,3.97
2018-09-18T17:35:04.385Z,4.33
2018-09-18T17:37:31.796Z,4.27
2018-09-18T17:39:59.265Z,4.03
2018-09-18T17:42:27.532Z,4.37
2018-09-18T17:44:54.971Z,4.03
2018-09-18T17:47:22.442Z,4.83
2018-09-18T17:49:49.882Z,4.30
2018-09-18T17:52:17.260Z,3.93
2018-09-18T17:54:44.691Z,4.20
2018-09-18T17:57:12.126Z,3.90
2018-09-18T17:59:39.641Z,4.17
2018-09-18T18:02:06.991Z,4.10
2018-09-18T18:04:34.569Z,4.10
2018-09-18T18:07:01.978Z,3.77
2018-09-18T18:09:29.440Z,3.83
2018-09-18T18:11:56.850Z,3.80
2018-09-18T18:14:24.295Z,4.40
2018-09-18T18:16:51.722Z,4.23
2018-09-18T18:19:19.167Z,4.20
2018-09-18T18:21:46.696Z,4.20
2018-09-18T18:24:14.093Z,4.50
2018-09-18T18:26:41.509Z,4.03
2018-09-18T18:29:08.998Z,4.07
2018-09-18T18:31:36.377Z,4.00
2018-09-18T18:36:31.249Z,4.60
2018-09-18T18:38:58.663Z,4.07
2018-09-18T18:41:26.259Z,4.20
2018-09-18T18:43:53.578Z,3.73
2018-09-18T18:46:20.988Z,4.37
2018-09-18T18:48:48.478Z,4.57
2018-09-18T18:51:15.915Z,3.97
2018-09-18T18:53:43.341Z,3.60
2018-09-18T18:56:10.792Z,4.07
2018-09-18T18:58:38.208Z,4.87
2018-09-18T19:01:05.760Z,4.30
2018-09-18T19:03:33.194Z,3.57
2018-09-18T19:06:00.623Z,3.80
2018-09-18T19:08:28.078Z,4.20
2018-09-18T19:10:55.475Z,4.30
2018-09-18T19:13:22.969Z,4.20
2018-09-18T19:15:50.389Z,3.60
2018-09-18T19:18:18.917Z,4.10
2018-09-18T19:20:46.314Z,4.17
2018-09-18T19:23:13.821Z,4.13
2018-09-18T19:25:41.266Z,4.60
2018-09-18T19:28:08.631Z,4.03
2018-09-18T19:30:36.114Z,4.33
2018-09-18T19:33:03.527Z,4.33
2018-09-18T19:35:30.910Z,5.87
2018-09-18T19:37:58.332Z,4.10
2018-09-18T19:40:25.803Z,4.50
2018-09-18T19:42:53.208Z,4.83
2018-09-18T19:45:20.746Z,4.60
2018-09-18T19:47:48.147Z,4.70
2018-09-18T19:50:15.642Z,4.90
2018-09-18T19:52:43.032Z,4.70
2018-09-18T19:55:10.480Z,5.10
2018-09-18T19:57:37.917Z,4.77
2018-09-18T20:00:05.327Z,4.43
2018-09-18T20:02:32.778Z,4.57
2018-09-18T20:05:00.208Z,5.10
2018-09-18T20:07:27.640Z,4.80
2018-09-18T20:09:55.114Z,5.20
2018-09-18T20:12:22.535Z,4.97
2018-09-18T20:14:49.998Z,5.13
2018-09-18T20:17:17.410Z,4.60
2018-09-18T20:19:44.833Z,5.20
2018-09-18T20:22:12.313Z,5.13
2018-09-18T20:24:39.761Z,5.03
2018-09-18T20:27:07.242Z,5.90
2018-09-18T20:29:34.730Z,5.37
2018-09-18T20:32:02.197Z,4.53
2018-09-18T20:34:29.586Z,5.53
2018-09-18T20:36:57.020Z,5.40
2018-09-18T20:39:24.445Z,4.80
2018-09-18T20:41:51.905Z,4.90
2018-09-18T20:44:22.031Z,4.37
2018-09-18T20:46:49.494Z,4.90
2018-09-18T20:49:16.918Z,4.67
2018-09-18T20:51:44.358Z,5.10
2018-09-18T20:54:11.781Z,5.20
2018-09-18T20:56:39.190Z,4.43
2018-09-18T20:59:06.632Z,4.80
2018-09-18T21:01:35.007Z,5.17
2018-09-18T21:04:02.439Z,5.03
2018-09-18T21:06:29.882Z,4.87
2018-09-18T21:08:57.294Z,5.13
2018-09-18T21:11:24.734Z,5.77
2018-09-18T21:13:52.146Z,5.20
2018-09-18T21:16:19.594Z,5.10
2018-09-18T21:18:47.037Z,5.13
2018-09-18T21:21:14.447Z,5.23
2018-09-18T21:23:41.857Z,5.27
2018-09-18T21:26:10.193Z,4.23
2018-09-18T21:28:37.630Z,5.37
2018-09-18T21:31:05.040Z,5.23
2018-09-18T21:33:32.487Z,6.07
2018-09-18T21:35:59.888Z,5.13
2018-09-18T21:38:27.315Z,5.00
2018-09-18T21:40:54.744Z,5.23
2018-09-18T21:43:22.156Z,6.23
2018-09-18T21:45:49.660Z,5.57
2018-09-18T21:48:16.981Z,6.17
2018-09-18T21:50:44.439Z,5.40
2018-09-18T21:53:11.855Z,5.40
2018-09-18T21:55:39.283Z,6.63
2018-09-18T21:58:06.694Z,5.60
2018-09-18T22:00:34.141Z,6.10
2018-09-18T22:03:01.588Z,5.27
2018-09-18T22:05:29.011Z,5.57
2018-09-18T22:07:56.433Z,5.83
2018-09-18T22:10:23.877Z,5.57
2018-09-18T22:12:51.349Z,6.23
2018-09-18T22:15:18.763Z,6.23
2018-09-18T22:17:46.208Z,5.90
2018-09-18T22:20:13.622Z,5.47
2018-09-18T22:22:41.068Z,5.57
2018-09-18T22:25:08.480Z,5.90
2018-09-18T22:27:35.914Z,5.70
2018-09-18T22:30:03.333Z,5.40
2018-09-18T22:32:30.737Z,5.63
2018-09-18T22:34:58.182Z,6.33
2018-09-18T22:37:25.614Z,5.90
2018-09-18T22:39:53.013Z,5.80
2018-09-18T22:42:20.489Z,6.00
2018-09-18T22:44:47.888Z,5.37
2018-09-18T22:47:15.304Z,5.53
2018-09-18T22:49:42.723Z,5.33
2018-09-18T22:52:10.134Z,5.70
2018-09-18T22:54:37.573Z,5.73
2018-09-18T22:57:04.975Z,5.60
2018-09-18T22:59:32.378Z,6.10
2018-09-18T23:01:59.811Z,6.00
2018-09-18T23:04:27.255Z,6.20
2018-09-18T23:06:54.723Z,5.03
2018-09-18T23:09:22.106Z,5.70
2018-09-18T23:11:49.541Z,5.43
2018-09-18T23:14:16.957Z,6.33
2018-09-18T23:16:44.442Z,6.10
2018-09-18T23:19:11.849Z,5.33
2018-09-18T23:21:39.291Z,5.77
2018-09-18T23:24:06.819Z,5.53
2018-09-18T23:26:34.218Z,5.47
2018-09-18T23:29:01.663Z,5.83
2018-09-18T23:31:29.089Z,6.43
2018-09-18T23:33:56.513Z,7.00
2018-09-18T23:36:23.950Z,6.33
2018-09-18T23:38:51.358Z,5.90
2018-09-18T23:41:18.758Z,5.87
2018-09-18T23:43:46.188Z,6.73
2018-09-18T23:46:13.592Z,5.67
2018-09-18T23:48:41.033Z,6.50
2018-09-18T23:51:08.440Z,5.53
2018-09-18T23:53:35.868Z,6.33
2018-09-18T23:56:03.284Z,7.53
2018-09-18T23:58:30.729Z,7.47
